sensor_id;sensor_type;location;lat;lon;timestamp;pressure;altitude;pressure_sealevel;temperature;humidity
68301;BME280;55146;47.468;18.806;2022-12-04T00:01:10;100761.63;;;4.91;92.13
68301;BME280;55146;47.468;18.806;2022-12-04T00:03:38;100754.97;;;4.86;92.03
68301;BME280;55146;47.468;18.806;2022-12-04T00:06:09;100755.56;;;4.88;92.04
68301;BME280;55146;47.468;18.806;2022-12-04T00:08:35;100752.28;;;4.80;92.38
68301;BME280;55146;47.468;18.806;2022-12-04T00:11:03;100753.56;;;4.77;92.62
68301;BME280;55146;47.468;18.806;2022-12-04T00:13:28;100752.88;;;4.82;92.15
68301;BME280;55146;47.468;18.806;2022-12-04T00:15:53;100746.38;;;4.83;92.33
68301;BME280;55146;47.468;18.806;2022-12-04T00:18:19;100748.59;;;4.68;93.03
68301;BME280;55146;47.468;18.806;2022-12-04T00:20:44;100747.56;;;4.69;92.81
68301;BME280;55146;47.468;18.806;2022-12-04T00:23:09;100751.56;;;4.60;93.40
68301;BME280;55146;47.468;18.806;2022-12-04T00:25:34;100740.50;;;4.55;93.73
68301;BME280;55146;47.468;18.806;2022-12-04T00:28:00;100742.41;;;4.54;93.75
68301;BME280;55146;47.468;18.806;2022-12-04T00:30:25;100755.16;;;4.60;93.63
68301;BME280;55146;47.468;18.806;2022-12-04T00:32:50;100759.37;;;4.56;93.57
68301;BME280;55146;47.468;18.806;2022-12-04T00:35:16;100755.97;;;4.61;93.25
68301;BME280;55146;47.468;18.806;2022-12-04T00:37:41;100761.59;;;4.66;92.90
68301;BME280;55146;47.468;18.806;2022-12-04T00:40:07;100766.28;;;4.52;93.37
68301;BME280;55146;47.468;18.806;2022-12-04T00:42:32;100767.78;;;4.48;94.02
68301;BME280;55146;47.468;18.806;2022-12-04T00:44:57;100762.09;;;4.56;93.46
68301;BME280;55146;47.468;18.806;2022-12-04T00:47:23;100750.44;;;4.42;94.25
68301;BME280;55146;47.468;18.806;2022-12-04T00:49:48;100762.16;;;4.43;93.81
68301;BME280;55146;47.468;18.806;2022-12-04T00:52:14;100756.72;;;4.43;93.99
68301;BME280;55146;47.468;18.806;2022-12-04T00:54:39;100754.41;;;4.40;93.83
68301;BME280;55146;47.468;18.806;2022-12-04T00:57:05;100756.94;;;4.41;93.78
68301;BME280;55146;47.468;18.806;2022-12-04T00:59:30;100759.88;;;4.33;94.38
68301;BME280;55146;47.468;18.806;2022-12-04T01:01:55;100778.09;;;4.39;93.88
68301;BME280;55146;47.468;18.806;2022-12-04T01:04:20;100763.25;;;4.35;94.13
68301;BME280;55146;47.468;18.806;2022-12-04T01:06:46;100761.91;;;4.44;93.93
68301;BME280;55146;47.468;18.806;2022-12-04T01:09:11;100761.72;;;4.46;93.51
68301;BME280;55146;47.468;18.806;2022-12-04T01:11:37;100762.59;;;4.40;93.61
68301;BME280;55146;47.468;18.806;2022-12-04T01:14:03;100760.88;;;4.45;93.70
68301;BME280;55146;47.468;18.806;2022-12-04T01:16:31;100755.03;;;4.42;93.71
68301;BME280;55146;47.468;18.806;2022-12-04T01:18:58;100753.47;;;4.59;93.05
68301;BME280;55146;47.468;18.806;2022-12-04T01:21:23;100754.16;;;4.48;93.22
68301;BME280;55146;47.468;18.806;2022-12-04T01:23:49;100759.56;;;4.55;92.96
68301;BME280;55146;47.468;18.806;2022-12-04T01:26:14;100752.06;;;4.50;93.35
68301;BME280;55146;47.468;18.806;2022-12-04T01:28:40;100764.56;;;4.58;92.97
68301;BME280;55146;47.468;18.806;2022-12-04T01:31:08;100764.88;;;4.43;94.07
68301;BME280;55146;47.468;18.806;2022-12-04T01:33:35;100766.13;;;4.47;94.05
68301;BME280;55146;47.468;18.806;2022-12-04T01:36:03;100760.38;;;4.62;93.37
68301;BME280;55146;47.468;18.806;2022-12-04T01:38:30;100760.13;;;4.63;93.18
68301;BME280;55146;47.468;18.806;2022-12-04T01:40:56;100768.94;;;4.65;93.33
68301;BME280;55146;47.468;18.806;2022-12-04T01:43:23;100756.09;;;4.72;92.78
68301;BME280;55146;47.468;18.806;2022-12-04T01:45:54;100751.75;;;4.65;92.97
68301;BME280;55146;47.468;18.806;2022-12-04T01:48:36;100753.03;;;4.62;93.68
68301;BME280;55146;47.468;18.806;2022-12-04T01:51:14;100741.72;;;4.59;93.37
68301;BME280;55146;47.468;18.806;2022-12-04T01:53:49;100748.09;;;4.46;94.37
68301;BME280;55146;47.468;18.806;2022-12-04T01:56:17;100752.31;;;4.42;94.61
68301;BME280;55146;47.468;18.806;2022-12-04T01:58:46;100751.03;;;4.44;94.62
68301;BME280;55146;47.468;18.806;2022-12-04T02:01:13;100754.63;;;4.38;94.89
68301;BME280;55146;47.468;18.806;2022-12-04T02:03:38;100753.19;;;4.36;95.11
68301;BME280;55146;47.468;18.806;2022-12-04T02:06:05;100748.09;;;4.46;94.73
68301;BME280;55146;47.468;18.806;2022-12-04T02:08:30;100741.84;;;4.39;94.92
68301;BME280;55146;47.468;18.806;2022-12-04T02:11:07;100741.00;;;4.38;95.17
68301;BME280;55146;47.468;18.806;2022-12-04T02:21:36;100728.66;;;4.42;93.89
68301;BME280;55146;47.468;18.806;2022-12-04T02:27:07;100733.34;;;4.22;94.59
68301;BME280;55146;47.468;18.806;2022-12-04T02:29:50;100729.84;;;4.08;95.77
68301;BME280;55146;47.468;18.806;2022-12-04T02:32:21;100727.81;;;3.97;96.32
68301;BME280;55146;47.468;18.806;2022-12-04T02:34:56;100724.41;;;4.08;95.49
68301;BME280;55146;47.468;18.806;2022-12-04T02:37:35;100726.31;;;4.01;95.50
68301;BME280;55146;47.468;18.806;2022-12-04T02:40:09;100724.44;;;4.02;95.54
68301;BME280;55146;47.468;18.806;2022-12-04T02:42:40;100730.31;;;3.99;95.20
68301;BME280;55146;47.468;18.806;2022-12-04T02:45:19;100733.62;;;4.07;94.33
68301;BME280;55146;47.468;18.806;2022-12-04T02:47:47;100736.56;;;4.13;93.99
68301;BME280;55146;47.468;18.806;2022-12-04T02:50:15;100736.97;;;4.10;93.65
68301;BME280;55146;47.468;18.806;2022-12-04T02:52:46;100736.59;;;4.06;93.73
68301;BME280;55146;47.468;18.806;2022-12-04T02:55:22;100734.47;;;4.01;93.90
68301;BME280;55146;47.468;18.806;2022-12-04T02:57:51;100727.41;;;4.00;94.02
68301;BME280;55146;47.468;18.806;2022-12-04T03:00:20;100729.50;;;3.92;94.41
68301;BME280;55146;47.468;18.806;2022-12-04T03:02:59;100721.56;;;3.90;94.59
68301;BME280;55146;47.468;18.806;2022-12-04T03:05:33;100722.19;;;3.92;94.81
68301;BME280;55146;47.468;18.806;2022-12-04T03:08:17;100718.16;;;4.01;94.20
68301;BME280;55146;47.468;18.806;2022-12-04T03:10:48;100708.09;;;4.02;94.81
68301;BME280;55146;47.468;18.806;2022-12-04T03:13:21;100720.09;;;3.94;95.28
68301;BME280;55146;47.468;18.806;2022-12-04T03:16:07;100726.84;;;3.72;96.17
68301;BME280;55146;47.468;18.806;2022-12-04T03:18:55;100726.62;;;3.80;96.03
68301;BME280;55146;47.468;18.806;2022-12-04T03:21:25;100730.59;;;3.84;95.66
68301;BME280;55146;47.468;18.806;2022-12-04T03:23:56;100731.25;;;3.73;96.23
68301;BME280;55146;47.468;18.806;2022-12-04T03:26:28;100732.28;;;3.79;95.65
68301;BME280;55146;47.468;18.806;2022-12-04T03:32:07;100724.97;;;3.73;95.74
68301;BME280;55146;47.468;18.806;2022-12-04T03:34:42;100722.03;;;3.74;95.54
68301;BME280;55146;47.468;18.806;2022-12-04T03:37:14;100719.97;;;3.76;95.09
68301;BME280;55146;47.468;18.806;2022-12-04T03:39:57;100725.81;;;3.73;95.42
68301;BME280;55146;47.468;18.806;2022-12-04T03:42:34;100717.19;;;3.83;95.11
68301;BME280;55146;47.468;18.806;2022-12-04T03:45:19;100716.41;;;3.76;95.16
68301;BME280;55146;47.468;18.806;2022-12-04T03:48:04;100727.12;;;3.64;96.08
68301;BME280;55146;47.468;18.806;2022-12-04T03:50:37;100723.56;;;3.57;96.44
68301;BME280;55146;47.468;18.806;2022-12-04T03:53:46;100717.91;;;3.58;96.50
68301;BME280;55146;47.468;18.806;2022-12-04T03:56:01;100728.37;;;3.61;96.34
68301;BME280;55146;47.468;18.806;2022-12-04T03:58:32;100724.44;;;3.44;97.22
68301;BME280;55146;47.468;18.806;2022-12-04T04:01:00;100721.53;;;3.39;97.13
68301;BME280;55146;47.468;18.806;2022-12-04T04:03:30;100720.00;;;3.56;96.50
68301;BME280;55146;47.468;18.806;2022-12-04T04:06:03;100721.47;;;3.52;96.83
68301;BME280;55146;47.468;18.806;2022-12-04T04:08:34;100719.59;;;3.53;96.97
68301;BME280;55146;47.468;18.806;2022-12-04T04:13:46;100717.69;;;3.60;96.16
68301;BME280;55146;47.468;18.806;2022-12-04T04:16:35;100709.34;;;3.55;96.17
68301;BME280;55146;47.468;18.806;2022-12-04T04:19:49;100720.22;;;3.48;96.47
68301;BME280;55146;47.468;18.806;2022-12-04T04:22:36;100719.59;;;3.46;96.24
68301;BME280;55146;47.468;18.806;2022-12-04T04:25:37;100723.78;;;3.55;95.55
68301;BME280;55146;47.468;18.806;2022-12-04T04:28:04;100718.75;;;3.52;95.32
68301;BME280;55146;47.468;18.806;2022-12-04T04:30:31;100720.88;;;3.50;95.50
68301;BME280;55146;47.468;18.806;2022-12-04T04:33:08;100720.62;;;3.52;95.02
68301;BME280;55146;47.468;18.806;2022-12-04T04:35:50;100730.47;;;3.53;94.85
68301;BME280;55146;47.468;18.806;2022-12-04T04:38:39;100721.28;;;3.41;95.40
68301;BME280;55146;47.468;18.806;2022-12-04T04:41:12;100720.03;;;3.43;95.17
68301;BME280;55146;47.468;18.806;2022-12-04T04:46:18;100730.91;;;3.43;95.07
68301;BME280;55146;47.468;18.806;2022-12-04T04:48:50;100724.84;;;3.35;95.23
68301;BME280;55146;47.468;18.806;2022-12-04T04:51:17;100725.88;;;3.47;94.64
68301;BME280;55146;47.468;18.806;2022-12-04T04:53:46;100728.84;;;3.39;94.73
68301;BME280;55146;47.468;18.806;2022-12-04T04:56:14;100740.31;;;3.41;94.71
68301;BME280;55146;47.468;18.806;2022-12-04T04:58:40;100740.34;;;3.21;95.75
68301;BME280;55146;47.468;18.806;2022-12-04T05:01:09;100735.97;;;3.20;95.99
68301;BME280;55146;47.468;18.806;2022-12-04T05:03:35;100727.81;;;3.20;95.72
68301;BME280;55146;47.468;18.806;2022-12-04T05:06:00;100734.09;;;3.27;95.12
68301;BME280;55146;47.468;18.806;2022-12-04T05:08:26;100735.75;;;3.28;95.12
68301;BME280;55146;47.468;18.806;2022-12-04T05:10:51;100733.03;;;3.21;95.25
68301;BME280;55146;47.468;18.806;2022-12-04T05:13:18;100728.00;;;3.32;94.67
68301;BME280;55146;47.468;18.806;2022-12-04T05:15:43;100730.75;;;3.25;94.81
68301;BME280;55146;47.468;18.806;2022-12-04T05:18:09;100724.47;;;3.18;94.87
68301;BME280;55146;47.468;18.806;2022-12-04T05:20:38;100726.56;;;3.03;95.70
68301;BME280;55146;47.468;18.806;2022-12-04T05:23:04;100734.94;;;3.14;94.87
68301;BME280;55146;47.468;18.806;2022-12-04T05:25:29;100735.78;;;3.08;95.33
68301;BME280;55146;47.468;18.806;2022-12-04T05:27:54;100728.66;;;3.07;95.39
68301;BME280;55146;47.468;18.806;2022-12-04T05:30:20;100735.78;;;3.08;95.01
68301;BME280;55146;47.468;18.806;2022-12-04T05:32:45;100729.06;;;3.17;94.87
68301;BME280;55146;47.468;18.806;2022-12-04T05:35:10;100734.72;;;3.09;94.99
68301;BME280;55146;47.468;18.806;2022-12-04T05:37:37;100734.09;;;3.07;95.08
68301;BME280;55146;47.468;18.806;2022-12-04T05:40:04;100734.31;;;3.12;95.08
68301;BME280;55146;47.468;18.806;2022-12-04T05:42:30;100740.38;;;3.14;94.95
68301;BME280;55146;47.468;18.806;2022-12-04T05:44:55;100738.06;;;3.11;94.64
68301;BME280;55146;47.468;18.806;2022-12-04T05:47:20;100741.22;;;3.08;94.56
68301;BME280;55146;47.468;18.806;2022-12-04T05:49:46;100740.97;;;3.10;94.43
68301;BME280;55146;47.468;18.806;2022-12-04T05:52:11;100735.97;;;3.20;93.93
68301;BME280;55146;47.468;18.806;2022-12-04T05:54:37;100736.59;;;3.22;93.53
68301;BME280;55146;47.468;18.806;2022-12-04T05:57:02;100739.09;;;3.17;93.74
68301;BME280;55146;47.468;18.806;2022-12-04T05:59:27;100737.41;;;3.22;93.29
68301;BME280;55146;47.468;18.806;2022-12-04T06:01:53;100739.75;;;3.19;93.56
68301;BME280;55146;47.468;18.806;2022-12-04T06:04:18;100733.25;;;3.13;93.62
68301;BME280;55146;47.468;18.806;2022-12-04T06:06:44;100736.81;;;3.20;93.18
68301;BME280;55146;47.468;18.806;2022-12-04T06:09:10;100739.75;;;3.12;93.87
68301;BME280;55146;47.468;18.806;2022-12-04T06:11:37;100741.63;;;3.18;93.48
68301;BME280;55146;47.468;18.806;2022-12-04T06:14:05;100738.91;;;3.18;93.78
68301;BME280;55146;47.468;18.806;2022-12-04T06:16:34;100739.28;;;3.29;92.71
68301;BME280;55146;47.468;18.806;2022-12-04T06:19:05;100735.53;;;3.23;92.88
68301;BME280;55146;47.468;18.806;2022-12-04T06:21:32;100736.19;;;3.25;92.74
68301;BME280;55146;47.468;18.806;2022-12-04T06:23:58;100740.97;;;3.23;92.85
68301;BME280;55146;47.468;18.806;2022-12-04T06:26:24;100741.81;;;3.17;92.85
68301;BME280;55146;47.468;18.806;2022-12-04T06:28:52;100739.53;;;3.27;92.22
68301;BME280;55146;47.468;18.806;2022-12-04T06:31:18;100744.75;;;3.22;92.37
68301;BME280;55146;47.468;18.806;2022-12-04T06:33:44;100742.84;;;3.36;91.66
68301;BME280;55146;47.468;18.806;2022-12-04T06:36:15;100747.88;;;3.32;91.70
68301;BME280;55146;47.468;18.806;2022-12-04T06:38:41;100746.84;;;3.27;92.07
68301;BME280;55146;47.468;18.806;2022-12-04T06:41:09;100750.16;;;3.29;92.32
68301;BME280;55146;47.468;18.806;2022-12-04T06:43:36;100752.06;;;3.28;92.17
68301;BME280;55146;47.468;18.806;2022-12-04T06:46:06;100741.34;;;3.46;91.59
68301;BME280;55146;47.468;18.806;2022-12-04T06:48:32;100746.38;;;3.49;91.40
68301;BME280;55146;47.468;18.806;2022-12-04T06:51:03;100738.03;;;3.51;91.38
68301;BME280;55146;47.468;18.806;2022-12-04T06:53:29;100734.22;;;3.52;91.26
68301;BME280;55146;47.468;18.806;2022-12-04T06:55:57;100744.31;;;3.51;91.40
68301;BME280;55146;47.468;18.806;2022-12-04T06:58:23;100749.06;;;3.62;90.73
68301;BME280;55146;47.468;18.806;2022-12-04T07:00:49;100741.94;;;3.75;90.24
68301;BME280;55146;47.468;18.806;2022-12-04T07:03:14;100740.22;;;3.80;89.72
68301;BME280;55146;47.468;18.806;2022-12-04T07:05:39;100739.78;;;3.83;89.70
68301;BME280;55146;47.468;18.806;2022-12-04T07:08:05;100725.78;;;3.86;89.86
68301;BME280;55146;47.468;18.806;2022-12-04T07:10:30;100735.41;;;3.89;89.66
68301;BME280;55146;47.468;18.806;2022-12-04T07:12:55;100739.53;;;3.98;89.52
68301;BME280;55146;47.468;18.806;2022-12-04T07:15:21;100733.91;;;3.93;89.69
68301;BME280;55146;47.468;18.806;2022-12-04T07:17:46;100735.59;;;3.94;89.98
68301;BME280;55146;47.468;18.806;2022-12-04T07:20:11;100737.69;;;3.92;90.18
68301;BME280;55146;47.468;18.806;2022-12-04T07:22:37;100741.00;;;4.00;89.71
68301;BME280;55146;47.468;18.806;2022-12-04T07:25:02;100741.13;;;4.19;88.45
68301;BME280;55146;47.468;18.806;2022-12-04T07:27:29;100736.50;;;4.26;88.34
68301;BME280;55146;47.468;18.806;2022-12-04T07:29:55;100737.72;;;4.30;88.40
68301;BME280;55146;47.468;18.806;2022-12-04T07:32:20;100741.25;;;4.37;88.24
68301;BME280;55146;47.468;18.806;2022-12-04T07:34:45;100733.06;;;4.37;88.34
68301;BME280;55146;47.468;18.806;2022-12-04T07:37:11;100729.81;;;4.53;87.59
68301;BME280;55146;47.468;18.806;2022-12-04T07:39:36;100736.44;;;4.64;86.84
68301;BME280;55146;47.468;18.806;2022-12-04T07:42:01;100741.31;;;4.62;87.55
68301;BME280;55146;47.468;18.806;2022-12-04T07:44:29;100737.19;;;4.77;86.68
68301;BME280;55146;47.468;18.806;2022-12-04T07:46:55;100747.09;;;4.72;87.00
68301;BME280;55146;47.468;18.806;2022-12-04T07:49:20;100743.88;;;4.81;86.57
68301;BME280;55146;47.468;18.806;2022-12-04T07:51:46;100751.00;;;4.82;86.02
68301;BME280;55146;47.468;18.806;2022-12-04T07:54:11;100744.66;;;4.88;85.99
68301;BME280;55146;47.468;18.806;2022-12-04T07:56:36;100739.16;;;4.95;85.59
68301;BME280;55146;47.468;18.806;2022-12-04T07:59:02;100742.81;;;4.82;86.70
68301;BME280;55146;47.468;18.806;2022-12-04T08:01:27;100740.75;;;4.78;87.14
68301;BME280;55146;47.468;18.806;2022-12-04T08:03:55;100737.56;;;4.87;86.64
68301;BME280;55146;47.468;18.806;2022-12-04T08:06:22;100742.81;;;4.82;87.05
68301;BME280;55146;47.468;18.806;2022-12-04T08:08:48;100742.66;;;4.77;86.98
68301;BME280;55146;47.468;18.806;2022-12-04T08:11:18;100754.59;;;4.76;87.07
68301;BME280;55146;47.468;18.806;2022-12-04T08:13:44;100756.72;;;4.74;87.67
68301;BME280;55146;47.468;18.806;2022-12-04T08:16:10;100755.97;;;4.92;86.61
68301;BME280;55146;47.468;18.806;2022-12-04T08:18:36;100748.47;;;4.87;87.31
68301;BME280;55146;47.468;18.806;2022-12-04T08:21:10;100750.16;;;4.82;87.06
68301;BME280;55146;47.468;18.806;2022-12-04T08:23:36;100747.91;;;5.04;86.26
68301;BME280;55146;47.468;18.806;2022-12-04T08:26:03;100746.63;;;5.06;86.12
68301;BME280;55146;47.468;18.806;2022-12-04T08:28:28;100756.94;;;5.04;85.67
68301;BME280;55146;47.468;18.806;2022-12-04T08:30:54;100754.47;;;5.21;85.47
68301;BME280;55146;47.468;18.806;2022-12-04T08:33:19;100756.34;;;5.20;85.11
68301;BME280;55146;47.468;18.806;2022-12-04T08:35:45;100744.12;;;5.29;84.89
68301;BME280;55146;47.468;18.806;2022-12-04T08:38:10;100740.72;;;5.34;84.59
68301;BME280;55146;47.468;18.806;2022-12-04T08:40:36;100752.06;;;5.31;84.86
68301;BME280;55146;47.468;18.806;2022-12-04T08:43:01;100738.00;;;5.34;84.57
68301;BME280;55146;47.468;18.806;2022-12-04T08:45:26;100745.44;;;5.45;83.97
68301;BME280;55146;47.468;18.806;2022-12-04T08:47:52;100744.09;;;5.54;84.15
68301;BME280;55146;47.468;18.806;2022-12-04T08:50:17;100740.69;;;5.59;83.55
68301;BME280;55146;47.468;18.806;2022-12-04T08:52:42;100742.88;;;5.68;83.60
68301;BME280;55146;47.468;18.806;2022-12-04T08:55:08;100743.28;;;5.72;83.43
68301;BME280;55146;47.468;18.806;2022-12-04T08:57:33;100744.31;;;5.71;83.53
68301;BME280;55146;47.468;18.806;2022-12-04T08:59:59;100741.22;;;5.67;83.55
68301;BME280;55146;47.468;18.806;2022-12-04T09:05:47;100741.97;;;5.75;83.31
68301;BME280;55146;47.468;18.806;2022-12-04T09:08:14;100739.84;;;5.77;83.39
68301;BME280;55146;47.468;18.806;2022-12-04T09:10:40;100732.72;;;5.76;83.26
68301;BME280;55146;47.468;18.806;2022-12-04T09:13:06;100738.72;;;5.84;83.17
68301;BME280;55146;47.468;18.806;2022-12-04T09:15:32;100737.88;;;5.84;83.47
68301;BME280;55146;47.468;18.806;2022-12-04T09:17:57;100733.22;;;5.91;82.84
68301;BME280;55146;47.468;18.806;2022-12-04T09:20:23;100738.13;;;6.00;82.80
68301;BME280;55146;47.468;18.806;2022-12-04T09:22:49;100728.94;;;6.13;82.33
68301;BME280;55146;47.468;18.806;2022-12-04T09:25:15;100727.66;;;6.16;82.35
68301;BME280;55146;47.468;18.806;2022-12-04T09:27:40;100733.97;;;6.16;82.09
68301;BME280;55146;47.468;18.806;2022-12-04T09:30:10;100726.34;;;6.18;81.73
68301;BME280;55146;47.468;18.806;2022-12-04T09:32:35;100720.88;;;6.18;82.33
68301;BME280;55146;47.468;18.806;2022-12-04T09:35:01;100718.06;;;6.25;81.93
68301;BME280;55146;47.468;18.806;2022-12-04T09:37:26;100722.16;;;6.34;81.62
68301;BME280;55146;47.468;18.806;2022-12-04T09:40:12;100716.78;;;6.27;81.86
68301;BME280;55146;47.468;18.806;2022-12-04T09:42:57;100708.16;;;6.42;82.37
68301;BME280;55146;47.468;18.806;2022-12-04T09:45:25;100700.34;;;6.45;81.83
68301;BME280;55146;47.468;18.806;2022-12-04T09:47:53;100697.63;;;6.57;80.91
68301;BME280;55146;47.468;18.806;2022-12-04T09:50:40;100702.88;;;6.59;81.42
68301;BME280;55146;47.468;18.806;2022-12-04T09:53:14;100688.53;;;6.75;80.91
68301;BME280;55146;47.468;18.806;2022-12-04T09:55:46;100691.13;;;6.70;80.19
68301;BME280;55146;47.468;18.806;2022-12-04T09:58:21;100679.16;;;6.82;79.93
68301;BME280;55146;47.468;18.806;2022-12-04T10:00:49;100679.06;;;6.89;79.44
68301;BME280;55146;47.468;18.806;2022-12-04T10:03:19;100676.19;;;6.72;79.83
68301;BME280;55146;47.468;18.806;2022-12-04T10:05:53;100677.75;;;7.03;79.50
68301;BME280;55146;47.468;18.806;2022-12-04T10:08:24;100672.41;;;7.08;78.16
68301;BME280;55146;47.468;18.806;2022-12-04T10:11:07;100679.06;;;7.01;78.42
68301;BME280;55146;47.468;18.806;2022-12-04T10:13:42;100669.41;;;7.10;78.86
68301;BME280;55146;47.468;18.806;2022-12-04T10:24:33;100663.69;;;7.35;77.31
68301;BME280;55146;47.468;18.806;2022-12-04T10:27:09;100651.22;;;7.39;77.61
68301;BME280;55146;47.468;18.806;2022-12-04T10:29:36;100648.78;;;7.65;76.78
68301;BME280;55146;47.468;18.806;2022-12-04T10:32:27;100646.59;;;7.79;75.80
68301;BME280;55146;47.468;18.806;2022-12-04T10:34:57;100639.44;;;7.90;75.18
68301;BME280;55146;47.468;18.806;2022-12-04T10:37:25;100645.34;;;7.98;73.74
68301;BME280;55146;47.468;18.806;2022-12-04T10:40:08;100632.16;;;7.95;72.56
68301;BME280;55146;47.468;18.806;2022-12-04T10:42:41;100626.72;;;7.84;73.14
68301;BME280;55146;47.468;18.806;2022-12-04T10:45:11;100622.47;;;8.04;73.33
68301;BME280;55146;47.468;18.806;2022-12-04T10:47:38;100625.22;;;8.21;72.40
68301;BME280;55146;47.468;18.806;2022-12-04T10:50:17;100624.38;;;8.04;72.05
68301;BME280;55146;47.468;18.806;2022-12-04T10:52:44;100622.69;;;8.03;73.42
68301;BME280;55146;47.468;18.806;2022-12-04T10:55:10;100624.44;;;8.21;73.01
68301;BME280;55146;47.468;18.806;2022-12-04T10:57:41;100613.87;;;8.29;72.11
68301;BME280;55146;47.468;18.806;2022-12-04T11:00:29;100618.75;;;8.27;71.76
68301;BME280;55146;47.468;18.806;2022-12-04T11:02:58;100615.63;;;8.19;71.84
68301;BME280;55146;47.468;18.806;2022-12-04T11:05:28;100615.75;;;8.12;71.38
68301;BME280;55146;47.468;18.806;2022-12-04T11:07:56;100603.75;;;8.30;71.51
68301;BME280;55146;47.468;18.806;2022-12-04T11:10:40;100594.81;;;8.34;70.78
68301;BME280;55146;47.468;18.806;2022-12-04T11:15:42;100589.22;;;8.29;70.11
68301;BME280;55146;47.468;18.806;2022-12-04T11:18:28;100586.34;;;8.36;70.68
68301;BME280;55146;47.468;18.806;2022-12-04T11:21:03;100574.50;;;8.64;71.07
68301;BME280;55146;47.468;18.806;2022-12-04T11:23:39;100572.31;;;8.49;69.81
68301;BME280;55146;47.468;18.806;2022-12-04T11:26:05;100577.72;;;8.61;70.10
68301;BME280;55146;47.468;18.806;2022-12-04T11:28:31;100579.06;;;8.75;69.18
68301;BME280;55146;47.468;18.806;2022-12-04T11:31:00;100573.72;;;8.68;69.31
68301;BME280;55146;47.468;18.806;2022-12-04T11:33:56;100570.34;;;8.44;70.29
68301;BME280;55146;47.468;18.806;2022-12-04T11:36:32;100562.69;;;8.63;69.25
68301;BME280;55146;47.468;18.806;2022-12-04T11:39:18;100571.00;;;8.68;71.90
68301;BME280;55146;47.468;18.806;2022-12-04T11:41:44;100559.84;;;8.75;70.28
68301;BME280;55146;47.468;18.806;2022-12-04T11:44:25;100565.25;;;8.70;69.64
68301;BME280;55146;47.468;18.806;2022-12-04T11:46:56;100562.69;;;8.63;70.91
68301;BME280;55146;47.468;18.806;2022-12-04T11:49:23;100561.03;;;8.45;70.46
68301;BME280;55146;47.468;18.806;2022-12-04T11:52:07;100551.69;;;8.46;70.79
68301;BME280;55146;47.468;18.806;2022-12-04T11:54:54;100558.22;;;8.29;71.61
68301;BME280;55146;47.468;18.806;2022-12-04T11:57:48;100556.72;;;8.33;72.04
68301;BME280;55146;47.468;18.806;2022-12-04T12:00:17;100555.56;;;8.17;71.99
68301;BME280;55146;47.468;18.806;2022-12-04T12:08:33;100557.81;;;8.20;73.04
68301;BME280;55146;47.468;18.806;2022-12-04T12:11:14;100557.41;;;8.28;72.57
68301;BME280;55146;47.468;18.806;2022-12-04T12:13:57;100562.84;;;7.95;73.71
68301;BME280;55146;47.468;18.806;2022-12-04T12:16:57;100554.56;;;8.06;73.78
68301;BME280;55146;47.468;18.806;2022-12-04T12:22:32;100562.28;;;8.09;73.57
68301;BME280;55146;47.468;18.806;2022-12-04T12:25:18;100566.37;;;8.24;73.23
68301;BME280;55146;47.468;18.806;2022-12-04T12:33:25;100557.97;;;8.13;73.15
68301;BME280;55146;47.468;18.806;2022-12-04T12:36:09;100561.28;;;8.16;73.67
68301;BME280;55146;47.468;18.806;2022-12-04T12:38:46;100568.87;;;8.25;73.29
68301;BME280;55146;47.468;18.806;2022-12-04T12:41:16;100559.53;;;8.09;73.60
68301;BME280;55146;47.468;18.806;2022-12-04T12:43:47;100554.31;;;8.08;73.53
68301;BME280;55146;47.468;18.806;2022-12-04T12:46:22;100550.84;;;8.12;74.14
68301;BME280;55146;47.468;18.806;2022-12-04T12:49:15;100555.87;;;8.04;73.99
68301;BME280;55146;47.468;18.806;2022-12-04T12:52:03;100551.22;;;8.04;74.26
68301;BME280;55146;47.468;18.806;2022-12-04T12:57:36;100555.53;;;8.00;74.95
68301;BME280;55146;47.468;18.806;2022-12-04T13:00:12;100558.75;;;7.97;74.64
68301;BME280;55146;47.468;18.806;2022-12-04T13:03:01;100562.84;;;7.95;75.42
68301;BME280;55146;47.468;18.806;2022-12-04T13:05:38;100556.53;;;7.94;75.55
68301;BME280;55146;47.468;18.806;2022-12-04T13:08:12;100548.78;;;7.91;75.97
68301;BME280;55146;47.468;18.806;2022-12-04T13:10:49;100543.31;;;7.91;75.48
68301;BME280;55146;47.468;18.806;2022-12-04T13:13:29;100538.66;;;7.92;75.85
68301;BME280;55146;47.468;18.806;2022-12-04T13:16:04;100546.59;;;8.05;76.27
68301;BME280;55146;47.468;18.806;2022-12-04T13:18:37;100551.75;;;8.01;76.03
68301;BME280;55146;47.468;18.806;2022-12-04T13:21:05;100553.72;;;8.06;76.17
68301;BME280;55146;47.468;18.806;2022-12-04T13:23:54;100556.28;;;7.96;76.33
68301;BME280;55146;47.468;18.806;2022-12-04T13:37:55;100575.66;;;7.78;77.38
68301;BME280;55146;47.468;18.806;2022-12-04T13:40:42;100574.97;;;7.70;77.52
68301;BME280;55146;47.468;18.806;2022-12-04T13:43:24;100578.31;;;7.61;77.00
68301;BME280;55146;47.468;18.806;2022-12-04T13:45:51;100573.34;;;7.58;77.42
68301;BME280;55146;47.468;18.806;2022-12-04T13:48:33;100581.09;;;7.49;77.58
68301;BME280;55146;47.468;18.806;2022-12-04T13:53:34;100573.97;;;7.48;77.59
68301;BME280;55146;47.468;18.806;2022-12-04T13:56:03;100574.22;;;7.47;77.53
68301;BME280;55146;47.468;18.806;2022-12-04T13:58:31;100579.37;;;7.31;78.13
68301;BME280;55146;47.468;18.806;2022-12-04T14:01:03;100586.00;;;7.36;78.42
68301;BME280;55146;47.468;18.806;2022-12-04T14:03:33;100590.31;;;7.31;78.38
68301;BME280;55146;47.468;18.806;2022-12-04T14:06:18;100589.81;;;7.35;78.65
68301;BME280;55146;47.468;18.806;2022-12-04T14:09:04;100589.25;;;7.32;78.81
68301;BME280;55146;47.468;18.806;2022-12-04T14:11:42;100593.66;;;7.34;78.80
68301;BME280;55146;47.468;18.806;2022-12-04T14:14:27;100585.78;;;7.37;78.71